Time;durP1;ratioP1;P1;durP2;ratioP2;P2;SDS_P1;SDS_P2;PMS_P1;PMS_P2;Temp;Humidity;BMP_temperature;BMP_pressure;BME280_temperature;BME280_humidity;BME280_pressure;Samples;Min_cycle;Max_cycle;Signal;HPM_P1;HPM_P2
2021/04/21 00:01:40;;;;;;;9.77;3.10;;;;;;;13.66;60.38;101437.72;5051115;28;20536;-70
2021/04/21 00:04:08;;;;;;;6.28;3.30;;;;;;;13.62;60.55;101438.53;5039699;28;20129;-69
2021/04/21 00:06:36;;;;;;;7.57;3.28;;;;;;;13.60;60.77;101427.91;5033492;28;20044;-69
2021/04/21 00:09:06;;;;;;;6.40;2.88;;;;;;;13.60;60.65;101435.88;5051307;28;20033;-69
2021/04/21 00:11:34;;;;;;;6.50;2.97;;;;;;;13.57;60.97;101434.09;5054983;28;20131;-69
2021/04/21 00:14:02;;;;;;;9.25;3.00;;;;;;;13.41;61.18;101447.97;5054613;28;20552;-69
2021/04/21 00:16:32;;;;;;;8.82;3.03;;;;;;;13.36;61.52;101439.06;5057629;28;20702;-70
2021/04/21 00:19:01;;;;;;;7.45;3.45;;;;;;;13.44;61.32;101445.38;5063286;28;20036;-70
2021/04/21 00:21:30;;;;;;;12.45;3.72;;;;;;;13.49;61.22;101442.78;5050870;28;20045;-70
2021/04/21 00:23:57;;;;;;;6.85;3.17;;;;;;;13.49;61.30;101435.72;5051269;28;20037;-70
2021/04/21 00:26:26;;;;;;;6.97;2.58;;;;;;;13.55;61.43;101438.47;5050819;28;20079;-70
2021/04/21 00:28:54;;;;;;;9.82;3.33;;;;;;;13.63;61.40;101435.03;5034344;28;20040;-69
2021/04/21 00:31:24;;;;;;;10.57;3.67;;;;;;;13.66;61.20;101443.91;5050713;28;20044;-70
2021/04/21 00:33:58;;;;;;;8.85;3.20;;;;;;;13.36;61.56;101443.47;5051378;28;20037;-70
2021/04/21 00:36:27;;;;;;;7.65;3.03;;;;;;;13.23;61.86;101444.16;5051000;28;20128;-70
2021/04/21 00:38:56;;;;;;;6.85;2.90;;;;;;;13.28;61.59;101438.06;5062116;28;20051;-70
2021/04/21 00:41:34;;;;;;;5.65;3.00;;;;;;;13.33;61.32;101443.41;5060840;28;20033;-70
2021/04/21 00:44:16;;;;;;;7.35;3.65;;;;;;;13.18;61.67;101441.44;5051499;28;20438;-70
2021/04/21 00:46:48;;;;;;;7.30;2.92;;;;;;;13.16;61.80;101437.88;5032610;28;20033;-71
2021/04/21 00:49:21;;;;;;;9.02;3.45;;;;;;;13.19;61.78;101443.22;5050210;28;20059;-69
2021/04/21 00:51:53;;;;;;;11.75;3.65;;;;;;;13.18;61.62;101449.41;5060151;28;20070;-69
2021/04/21 00:54:31;;;;;;;7.60;2.92;;;;;;;12.97;62.08;101443.69;5059435;28;20065;-70
2021/04/21 00:57:08;;;;;;;6.55;3.55;;;;;;;12.77;62.80;101448.66;5050416;28;20064;-69
2021/04/21 00:59:48;;;;;;;8.23;3.38;;;;;;;12.77;62.50;101444.25;5056776;28;20450;-70
2021/04/21 01:02:19;;;;;;;8.27;3.47;;;;;;;12.78;62.10;101443.41;5056092;28;20037;-69
2021/04/21 01:04:48;;;;;;;5.53;3.22;;;;;;;12.76;61.96;101438.91;5032297;28;20038;-70
2021/04/21 01:07:17;;;;;;;7.10;3.22;;;;;;;12.83;62.01;101435.50;5050009;28;20108;-70
2021/04/21 01:09:47;;;;;;;8.80;3.35;;;;;;;12.78;61.88;101427.50;5057181;28;20040;-69
2021/04/21 01:12:17;;;;;;;5.07;3.30;;;;;;;12.65;62.00;101427.25;5056495;28;20436;-69
2021/04/21 01:14:48;;;;;;;6.68;3.40;;;;;;;12.54;62.22;101429.69;5055421;28;20159;-70
2021/04/21 01:17:18;;;;;;;11.48;3.92;;;;;;;12.48;62.21;101426.94;5064172;28;20457;-69
2021/04/21 01:20:11;;;;;;;9.52;3.90;;;;;;;12.57;61.90;101420.91;5056141;28;20129;-69
2021/04/21 01:23:20;;;;;;;7.57;3.88;;;;;;;12.60;61.75;101429.78;5049473;28;20037;-70
2021/04/21 01:26:02;;;;;;;5.30;3.20;;;;;;;12.54;61.98;101427.03;5058964;28;20068;-69
2021/04/21 01:28:33;;;;;;;8.55;3.45;;;;;;;12.52;62.11;101433.19;5049092;28;20498;-70
2021/04/21 01:31:02;;;;;;;6.70;3.20;;;;;;;12.53;62.23;101427.03;5064166;28;20505;-70
2021/04/21 01:33:31;;;;;;;7.85;3.60;;;;;;;12.56;62.39;101429.72;5049553;28;20115;-69
2021/04/21 01:36:03;;;;;;;8.55;3.10;;;;;;;12.60;62.31;101421.00;5064672;28;20064;-69
2021/04/21 01:38:31;;;;;;;10.35;3.95;;;;;;;12.65;62.19;101422.84;5053076;28;20053;-69
2021/04/21 01:41:02;;;;;;;6.43;3.30;;;;;;;12.50;62.17;101422.56;5049502;28;20048;-69
2021/04/21 01:43:35;;;;;;;6.20;3.38;;;;;;;12.24;62.97;101424.72;5048913;28;20037;-69
2021/04/21 01:46:05;;;;;;;7.68;4.03;;;;;;;12.25;62.69;101429.16;5015272;28;20115;-70
2021/04/21 01:48:35;;;;;;;7.97;3.97;;;;;;;12.30;62.42;101439.81;5049445;28;20127;-69
2021/04/21 01:51:10;;;;;;;6.40;3.50;;;;;;;12.58;61.50;101430.66;5033528;28;20098;-68
2021/04/21 01:53:43;;;;;;;8.65;3.30;;;;;;;12.65;61.25;101430.81;5059937;28;20064;-70
2021/04/21 01:56:13;;;;;;;9.15;3.28;;;;;;;12.66;61.12;101432.59;5049108;28;20122;-69
2021/04/21 01:58:55;;;;;;;7.70;3.08;;;;;;;12.66;61.28;101423.75;5059993;28;20064;-70
2021/04/21 02:01:33;;;;;;;9.15;3.70;;;;;;;12.67;61.30;101422.84;5049078;28;20406;-69
2021/04/21 02:04:07;;;;;;;7.30;3.58;;;;;;;12.56;61.41;101420.03;5057781;28;20074;-69
2021/04/21 02:06:50;;;;;;;5.60;3.00;;;;;;;12.55;61.43;101422.63;5062455;28;20699;-69
2021/04/21 02:09:35;;;;;;;6.95;3.50;;;;;;;12.50;61.26;101427.84;5050086;28;20045;-69
2021/04/21 02:12:10;;;;;;;4.78;3.10;;;;;;;12.48;61.27;101426.03;5045064;28;20041;-69
2021/04/21 02:14:49;;;;;;;8.15;3.42;;;;;;;12.17;62.02;101428.09;5041878;28;20516;-70
2021/04/21 02:17:26;;;;;;;6.25;3.42;;;;;;;12.32;62.11;101431.06;5050664;28;20060;-69
2021/04/21 02:20:01;;;;;;;9.20;3.35;;;;;;;12.48;61.04;101436.63;5048046;28;20072;-69
2021/04/21 02:22:34;;;;;;;7.55;3.35;;;;;;;12.26;61.49;101419.47;5048911;28;20037;-69
2021/04/21 02:25:15;;;;;;;8.02;3.63;;;;;;;12.23;61.38;101419.41;5048617;28;20133;-69
2021/04/21 02:27:53;;;;;;;5.57;3.03;;;;;;;12.33;61.06;101426.66;5048157;28;20050;-69
2021/04/21 02:30:32;;;;;;;8.07;3.10;;;;;;;12.38;60.77;101423.22;5048391;28;20153;-70
2021/04/21 02:33:12;;;;;;;6.47;3.10;;;;;;;12.27;61.07;101418.63;5048642;28;20041;-69
2021/04/21 02:35:44;;;;;;;8.82;3.10;;;;;;;12.28;61.03;101425.66;5030451;28;20056;-69
2021/04/21 02:38:33;;;;;;;6.80;2.53;;;;;;;12.25;60.62;101441.50;5044816;28;20059;-69
2021/04/21 02:41:08;;;;;;;5.40;3.03;;;;;;;12.26;60.57;101428.31;5056919;28;20029;-69
2021/04/21 02:43:51;;;;;;;6.45;3.10;;;;;;;12.11;61.19;101435.94;5056524;28;20378;-72
2021/04/21 02:46:26;;;;;;;6.00;2.97;;;;;;;12.20;61.18;101432.59;5062361;28;20037;-69
2021/04/21 02:49:08;;;;;;;6.35;2.80;;;;;;;12.30;60.94;101423.94;5056496;28;20496;-69
2021/04/21 02:51:45;;;;;;;5.03;3.28;;;;;;;12.20;61.13;101420.25;5044894;28;20053;-70
2021/04/21 02:54:22;;;;;;;5.30;3.50;;;;;;;11.96;61.33;101423.28;5030332;28;20511;-69
2021/04/21 02:56:57;;;;;;;7.18;2.65;;;;;;;12.24;61.16;101427.38;5048766;28;20409;-69
2021/04/21 02:59:37;;;;;;;5.28;3.00;;;;;;;12.45;60.42;101426.00;5049433;28;20563;-69
2021/04/21 03:02:10;;;;;;;7.97;3.50;;;;;;;12.31;60.41;101431.03;5057112;28;20069;-69
2021/04/21 03:04:48;;;;;;;8.52;3.25;;;;;;;12.29;60.15;101436.28;5023554;28;20045;-70
2021/04/21 03:07:19;;;;;;;10.48;3.38;;;;;;;12.13;60.44;101441.25;5048149;28;20421;-70
2021/04/21 03:09:51;;;;;;;5.55;3.47;;;;;;;12.17;60.57;101446.63;5048184;28;20049;-70
2021/04/21 03:12:23;;;;;;;6.03;2.60;;;;;;;12.16;60.89;101444.84;5056405;28;20039;-69
2021/04/21 03:14:55;;;;;;;6.75;2.80;;;;;;;12.22;60.86;101442.31;5040362;28;20120;-69
2021/04/21 03:17:24;;;;;;;7.75;2.45;;;;;;;12.26;60.89;101440.66;5066048;28;20552;-69
2021/04/21 03:19:57;;;;;;;5.75;2.58;;;;;;;12.40;60.66;101436.50;5048079;28;20060;-69
2021/04/21 03:22:26;;;;;;;7.07;3.00;;;;;;;12.49;60.29;101435.78;5064830;28;20127;-70
2021/04/21 03:25:11;;;;;;;9.00;3.50;;;;;;;12.42;60.32;101444.47;5058961;28;20053;-67
2021/04/21 03:27:42;;;;;;;8.27;2.63;;;;;;;12.22;60.72;101449.38;5047873;28;20065;-69
2021/04/21 03:30:13;;;;;;;4.28;2.97;;;;;;;12.21;60.82;101450.22;5047552;28;20079;-69
2021/04/21 03:32:47;;;;;;;7.53;3.15;;;;;;;12.29;60.52;101459.22;5050479;28;20073;-70
2021/04/21 03:35:16;;;;;;;5.63;2.67;;;;;;;11.90;61.30;101454.00;5042500;28;20053;-69
2021/04/21 03:37:52;;;;;;;6.90;2.85;;;;;;;11.83;61.96;101460.03;5051702;28;20120;-70
2021/04/21 03:40:19;;;;;;;6.80;2.72;;;;;;;11.88;61.98;101459.25;5054306;28;20469;-69
2021/04/21 03:42:48;;;;;;;8.85;2.90;;;;;;;12.03;61.66;101455.16;5034667;28;20501;-69
2021/04/21 03:45:16;;;;;;;4.85;2.60;;;;;;;12.05;61.71;101448.16;5051808;28;20087;-69
2021/04/21 03:47:44;;;;;;;6.38;2.47;;;;;;;12.10;61.62;101459.72;5051656;28;20044;-69
2021/04/21 03:50:13;;;;;;;4.65;2.58;;;;;;;12.18;61.38;101463.41;5053756;28;20455;-69
2021/04/21 03:52:44;;;;;;;6.03;3.08;;;;;;;12.13;61.59;101462.44;5066845;28;20052;-70
2021/04/21 03:55:12;;;;;;;5.07;2.83;;;;;;;12.09;61.78;101484.38;5054441;28;20037;-69
2021/04/21 03:57:44;;;;;;;5.07;2.72;;;;;;;12.12;61.99;101481.81;5035184;28;20052;-69
2021/04/21 04:00:16;;;;;;;4.75;3.00;;;;;;;12.28;61.81;101492.75;5034963;28;20512;-69
2021/04/21 04:02:52;;;;;;;13.38;7.75;;;;;;;12.49;61.78;101494.94;5061854;28;20175;-69
2021/04/21 04:05:24;;;;;;;19.35;12.10;;;;;;;12.67;61.58;101497.03;5051073;28;20053;-69
2021/04/21 04:07:55;;;;;;;8.23;3.55;;;;;;;12.81;61.51;101495.53;5051479;28;20120;-69
2021/04/21 04:10:26;;;;;;;5.53;2.70;;;;;;;12.94;61.67;101497.53;5056093;28;20037;-69
2021/04/21 04:12:58;;;;;;;5.00;3.00;;;;;;;13.07;61.46;101490.69;5050772;28;20041;-69
2021/04/21 04:15:28;;;;;;;7.82;3.22;;;;;;;13.12;61.10;101489.97;5034353;28;20537;-70
2021/04/21 04:17:58;;;;;;;3.55;2.42;;;;;;;13.22;61.29;101480.38;5050482;28;20136;-70
2021/04/21 04:20:29;;;;;;;5.80;2.45;;;;;;;13.37;61.47;101480.63;5052574;28;20135;-70
2021/04/21 04:22:58;;;;;;;5.15;2.83;;;;;;;13.49;61.64;101491.44;5061505;28;20124;-70
2021/04/21 04:25:28;;;;;;;15.85;6.00;;;;;;;13.65;61.67;101494.31;5050614;28;20461;-70
2021/04/21 04:27:59;;;;;;;6.07;3.90;;;;;;;13.81;61.33;101488.34;5058755;28;20052;-70
2021/04/21 04:30:27;;;;;;;13.27;7.93;;;;;;;13.98;61.18;101493.00;5063736;28;20437;-70
2021/04/21 04:32:58;;;;;;;10.43;5.55;;;;;;;14.16;60.57;101508.31;5050056;28;20132;-70
2021/04/21 04:35:26;;;;;;;9.60;3.13;;;;;;;14.29;60.01;101512.91;5053332;28;20045;-70
2021/04/21 04:37:59;;;;;;;9.95;2.60;;;;;;;14.38;59.71;101509.47;5060149;28;20124;-70
2021/04/21 04:40:27;;;;;;;6.55;2.95;;;;;;;14.60;59.08;101502.66;5032548;28;20056;-69
2021/04/21 04:42:55;;;;;;;3.03;1.75;;;;;;;14.91;59.21;101493.22;5047385;28;20045;-70
2021/04/21 04:45:25;;;;;;;4.78;2.42;;;;;;;15.21;58.39;101487.31;5040569;28;20127;-70
2021/04/21 04:47:57;;;;;;;5.47;2.25;;;;;;;15.17;58.06;101499.66;5049334;28;20077;-70
2021/04/21 04:50:25;;;;;;;6.53;2.15;;;;;;;15.37;58.18;101500.72;5056461;28;20471;-70
2021/04/21 04:52:54;;;;;;;8.95;2.47;;;;;;;15.51;57.51;101504.38;5050718;28;20045;-71
2021/04/21 04:55:24;;;;;;;7.68;2.50;;;;;;;15.69;57.88;101506.31;5049749;28;20041;-69
2021/04/21 04:57:53;;;;;;;8.57;2.80;;;;;;;15.99;57.98;101510.06;5048417;28;20080;-70
2021/04/21 05:00:23;;;;;;;8.45;2.40;;;;;;;16.22;57.87;101513.72;5039336;28;20466;-70
2021/04/21 05:02:54;;;;;;;5.70;2.33;;;;;;;16.43;57.21;101512.91;5047512;28;20060;-69
2021/04/21 05:05:22;;;;;;;6.10;3.08;;;;;;;16.64;56.65;101507.69;5039071;28;20116;-70
2021/04/21 05:07:55;;;;;;;11.23;5.78;;;;;;;16.89;56.41;101508.63;5049650;28;20033;-70
2021/04/21 05:10:26;;;;;;;10.48;6.57;;;;;;;17.16;56.27;101507.78;5032274;28;20040;-70
2021/04/21 05:12:57;;;;;;;5.07;2.75;;;;;;;17.44;55.60;101514.91;5049937;28;20052;-71
2021/04/21 05:16:13;;;;;;;6.55;1.90;;;;;;;17.78;53.89;101522.03;5049298;28;20110;-70
2021/04/21 05:19:15;;;;;;;6.25;2.70;;;;;;;18.10;53.08;101519.28;5020371;28;20045;-70
2021/04/21 05:22:38;;;;;;;7.03;2.38;;;;;;;18.38;52.48;101516.50;5046729;28;20044;-70
2021/04/21 05:25:42;;;;;;;6.43;2.10;;;;;;;18.69;49.78;101528.88;5048423;28;20064;-71
2021/04/21 05:28:53;;;;;;;6.68;2.15;;;;;;;18.91;47.92;101532.28;5044228;28;20124;-71
2021/04/21 05:32:03;;;;;;;6.30;2.28;;;;;;;19.17;46.68;101534.78;5049110;28;20039;-70
2021/04/21 05:35:18;;;;;;;3.67;1.83;;;;;;;19.38;46.47;101522.13;5038481;28;20049;-70
2021/04/21 05:38:27;;;;;;;3.70;1.63;;;;;;;19.65;45.07;101522.81;5005361;28;20045;-70
2021/04/21 05:41:09;;;;;;;3.67;1.58;;;;;;;19.77;45.08;101520.91;5045048;28;20124;-70
2021/04/21 05:44:24;;;;;;;4.63;1.45;;;;;;;19.99;43.81;101521.56;5044567;28;20053;-70
2021/04/21 05:47:27;;;;;;;4.15;1.80;;;;;;;20.17;43.88;101526.72;5048883;28;20041;-71
2021/04/21 05:50:33;;;;;;;3.22;1.40;;;;;;;20.42;43.85;101523.75;5036851;28;20048;-71
2021/04/21 05:53:50;;;;;;;4.05;1.02;;;;;;;20.68;43.10;101530.56;5051523;28;20037;-71
2021/04/21 05:57:08;;;;;;;2.13;1.10;;;;;;;20.91;42.57;101530.25;5014636;28;20128;-71
2021/04/21 06:00:14;;;;;;;2.75;1.20;;;;;;;21.11;42.31;101531.75;4969606;28;20486;-70
2021/04/21 06:02:45;;;;;;;3.75;1.20;;;;;;;21.28;41.78;101529.72;5049417;28;20033;-71
2021/04/21 06:05:14;;;;;;;4.95;1.10;;;;;;;21.40;41.31;101538.47;5049286;28;20065;-71
2021/04/21 06:07:41;;;;;;;5.00;1.23;;;;;;;21.53;40.33;101540.97;5049086;28;20064;-71
2021/04/21 06:10:23;;;;;;;2.15;1.10;;;;;;;21.74;39.65;101541.47;5049952;28;20061;-71
2021/04/21 06:12:55;;;;;;;3.67;1.20;;;;;;;21.85;39.17;101528.72;5047527;28;20432;-71
2021/04/21 06:15:28;;;;;;;3.33;1.40;;;;;;;21.94;38.92;101527.66;5052462;28;20086;-72
2021/04/21 06:17:57;;;;;;;4.17;1.30;;;;;;;22.13;38.86;101530.91;5048878;28;20128;-72
2021/04/21 06:20:36;;;;;;;4.03;1.27;;;;;;;22.24;37.71;101528.91;5059619;28;20064;-72
2021/04/21 06:23:08;;;;;;;5.18;1.70;;;;;;;22.38;37.42;101534.91;5072978;28;20051;-71
2021/04/21 06:25:35;;;;;;;4.93;1.60;;;;;;;22.43;36.75;101538.38;5074723;28;20048;-71
2021/04/21 06:28:14;;;;;;;3.00;1.08;;;;;;;22.40;36.45;101540.22;5071653;28;20135;-71
2021/04/21 06:30:44;;;;;;;6.82;1.35;;;;;;;22.58;36.52;101545.22;5074126;28;20040;-71
2021/04/21 06:33:17;;;;;;;3.22;1.40;;;;;;;22.64;36.35;101540.59;5071282;28;20128;-71
2021/04/21 06:35:45;;;;;;;4.80;1.40;;;;;;;22.86;36.25;101535.66;5069466;28;20044;-72
2021/04/21 06:38:12;;;;;;;4.65;1.30;;;;;;;23.09;35.82;101528.84;5073229;28;20115;-71
2021/04/21 06:40:43;;;;;;;2.80;1.40;;;;;;;23.16;35.49;101514.31;5072839;28;20107;-71
2021/04/21 06:43:10;;;;;;;6.03;1.60;;;;;;;23.21;35.13;101523.16;5057695;28;20036;-70
2021/04/21 06:45:37;;;;;;;7.22;2.47;;;;;;;23.16;34.53;101535.88;5073865;28;20127;-70
2021/04/21 06:48:09;;;;;;;5.22;1.70;;;;;;;23.30;34.14;101531.91;5073647;28;20040;-70
2021/04/21 06:50:38;;;;;;;5.03;1.10;;;;;;;23.35;33.56;101543.47;5074111;28;20189;-70
2021/04/21 06:53:07;;;;;;;2.90;0.95;;;;;;;23.58;33.36;101542.91;5083806;28;20077;-70
2021/04/21 06:55:36;;;;;;;4.20;2.20;;;;;;;23.77;33.21;101548.72;5072272;28;20099;-70
2021/04/21 06:58:17;;;;;;;4.28;1.38;;;;;;;23.91;32.76;101546.53;5080222;28;20115;-70
2021/04/21 07:00:44;;;;;;;2.33;0.98;;;;;;;23.82;32.31;101536.91;5065307;28;20040;-71
2021/04/21 07:03:18;;;;;;;1.80;0.95;;;;;;;23.59;32.04;101539.31;5062688;28;20115;-70
2021/04/21 07:05:46;;;;;;;2.92;1.20;;;;;;;23.50;32.68;101542.22;5072022;28;20059;-71
2021/04/21 07:08:15;;;;;;;6.28;1.40;;;;;;;23.63;32.46;101546.38;5073766;28;20044;-71
2021/04/21 07:10:45;;;;;;;1.92;0.80;;;;;;;23.62;32.33;101568.00;5084957;28;20114;-71
2021/04/21 07:13:16;;;;;;;1.77;1.13;;;;;;;23.78;32.84;101572.94;5072473;28;20127;-70
2021/04/21 07:15:45;;;;;;;3.50;1.00;;;;;;;23.89;32.78;101575.38;5082461;28;20559;-70
2021/04/21 07:18:16;;;;;;;3.58;0.80;;;;;;;24.05;32.47;101568.63;5090968;28;20115;-70
2021/04/21 07:20:45;;;;;;;2.17;1.00;;;;;;;23.95;32.10;101567.13;5076629;28;20467;-70
2021/04/21 07:23:13;;;;;;;2.45;1.10;;;;;;;24.04;32.66;101568.66;5071960;28;20052;-71
2021/04/21 07:25:47;;;;;;;2.17;1.00;;;;;;;24.08;32.04;101557.78;5072092;28;20124;-74
2021/04/21 07:28:16;;;;;;;3.72;1.00;;;;;;;24.01;32.25;101564.25;5071394;28;20119;-73
2021/04/21 07:30:43;;;;;;;3.45;0.93;;;;;;;24.10;32.52;101560.41;5073245;28;20553;-73
2021/04/21 07:33:10;;;;;;;4.72;1.33;;;;;;;24.38;32.68;101558.75;5060735;28;20127;-73
2021/04/21 07:35:39;;;;;;;5.60;1.45;;;;;;;24.68;32.82;101570.44;5077500;28;20047;-73
2021/04/21 07:38:19;;;;;;;3.53;1.50;;;;;;;24.90;32.69;101579.72;5075741;28;20043;-73
2021/04/21 07:40:51;;;;;;;3.00;1.27;;;;;;;24.99;32.93;101576.75;5082906;28;20068;-73
2021/04/21 07:43:19;;;;;;;2.38;1.02;;;;;;;24.95;32.78;101576.88;5068817;28;20460;-74
2021/04/21 07:45:59;;;;;;;3.92;1.38;;;;;;;25.02;33.14;101583.88;5073950;28;20047;-73
2021/04/21 07:48:46;;;;;;;4.00;1.35;;;;;;;25.22;33.07;101585.94;5081191;28;20040;-74
2021/04/21 07:51:38;;;;;;;8.30;3.10;;;;;;;25.32;33.21;101580.22;5084848;28;20036;-74
2021/04/21 07:54:16;;;;;;;4.22;2.80;;;;;;;25.45;33.27;101580.69;5075508;28;20060;-72
2021/04/21 07:56:53;;;;;;;3.75;2.25;;;;;;;25.53;33.28;101577.75;5060696;28;20403;-72
2021/04/21 07:59:21;;;;;;;6.00;2.20;;;;;;;25.46;33.97;101570.75;5075800;28;20063;-73
2021/04/21 08:01:51;;;;;;;3.38;2.00;;;;;;;25.56;34.02;101574.91;5073339;28;20570;-73
2021/04/21 08:04:24;;;;;;;5.88;2.35;;;;;;;25.56;33.41;101583.03;5071463;28;20044;-73
2021/04/21 08:06:54;;;;;;;6.25;3.03;;;;;;;25.34;33.48;101580.13;5061590;28;20119;-73
2021/04/21 08:09:22;;;;;;;2.72;1.40;;;;;;;25.43;33.07;101582.56;5076109;28;20037;-73
2021/04/21 08:12:08;;;;;;;4.88;2.03;;;;;;;25.53;33.38;101573.22;5071312;28;20644;-74
2021/04/21 08:14:41;;;;;;;5.22;2.25;;;;;;;25.56;33.69;101585.72;5071392;28;20048;-72
2021/04/21 08:17:08;;;;;;;7.00;2.05;;;;;;;25.63;33.53;101585.53;5070107;28;20064;-73
2021/04/21 08:19:38;;;;;;;5.75;2.80;;;;;;;25.71;33.47;101585.25;5080975;28;20064;-73
2021/04/21 08:22:05;;;;;;;4.18;1.58;;;;;;;25.53;33.49;101585.84;5080615;28;20029;-74
2021/04/21 08:24:41;;;;;;;5.10;1.67;;;;;;;25.60;34.01;101585.59;5081108;28;20714;-73
2021/04/21 08:27:09;;;;;;;5.03;2.65;;;;;;;25.74;34.33;101586.03;5053984;28;20562;-74
2021/04/21 08:29:37;;;;;;;2.90;1.17;;;;;;;25.71;34.21;101598.78;5055102;28;20540;-73
2021/04/21 08:32:05;;;;;;;6.93;2.22;;;;;;;25.74;34.25;101598.66;5071230;28;20036;-73
2021/04/21 08:34:32;;;;;;;4.07;1.42;;;;;;;25.92;34.53;101603.47;5071807;28;20167;-73
2021/04/21 08:37:00;;;;;;;5.32;1.77;;;;;;;25.90;34.32;101599.94;5070469;28;20563;-74
2021/04/21 08:39:27;;;;;;;1.92;1.20;;;;;;;25.92;33.47;101598.06;5086087;28;20115;-73
2021/04/21 08:41:59;;;;;;;3.05;1.00;;;;;;;25.98;33.71;101589.72;5079099;28;21550;-73
2021/04/21 08:44:29;;;;;;;2.42;1.20;;;;;;;26.11;34.17;101592.88;5080146;28;20555;-73
2021/04/21 08:47:00;;;;;;;6.25;1.58;;;;;;;26.16;34.00;101593.59;5075024;28;20523;-73
2021/04/21 08:49:30;;;;;;;4.75;1.42;;;;;;;26.04;33.62;101583.22;5071122;28;20048;-74
2021/04/21 08:52:00;;;;;;;4.43;1.50;;;;;;;25.97;34.32;101585.25;5072345;28;20048;-73
2021/04/21 08:54:29;;;;;;;6.63;3.15;;;;;;;26.13;34.39;101588.28;5087202;28;20127;-73
2021/04/21 08:56:58;;;;;;;5.93;2.13;;;;;;;26.26;34.01;101586.94;5078517;28;20119;-72
2021/04/21 08:59:26;;;;;;;5.05;2.25;;;;;;;26.35;33.93;101601.97;5069817;28;20136;-73
2021/04/21 09:01:53;;;;;;;6.28;2.38;;;;;;;26.56;33.70;101598.47;5070453;28;20119;-72
2021/04/21 09:04:20;;;;;;;5.32;1.85;;;;;;;26.52;33.19;101602.22;5078137;28;20040;-73
2021/04/21 09:06:48;;;;;;;8.77;1.83;;;;;;;26.55;33.03;101600.31;5070022;28;20644;-73
2021/04/21 09:09:16;;;;;;;4.22;1.67;;;;;;;26.54;32.73;101593.13;5075259;28;20086;-73
2021/04/21 09:11:44;;;;;;;5.97;1.30;;;;;;;26.65;32.51;101594.56;5070090;28;20132;-73
2021/04/21 09:14:12;;;;;;;6.00;2.00;;;;;;;26.60;33.39;101597.41;5069569;28;20067;-72
2021/04/21 09:16:40;;;;;;;3.95;1.55;;;;;;;26.47;33.79;101597.00;5068629;28;20048;-73
2021/04/21 09:19:16;;;;;;;6.53;2.00;;;;;;;26.22;34.22;101590.66;5072298;28;20040;-73
2021/04/21 09:21:43;;;;;;;7.03;2.47;;;;;;;26.11;34.86;101596.47;5068488;28;20067;-73
2021/04/21 09:24:27;;;;;;;5.82;1.92;;;;;;;26.43;34.41;101599.88;5081366;28;20127;-73
2021/04/21 09:26:55;;;;;;;4.95;1.73;;;;;;;26.51;34.13;101601.38;5075800;28;20123;-72
2021/04/21 09:29:28;;;;;;;6.65;1.70;;;;;;;26.68;34.12;101594.44;5069784;28;20083;-72
2021/04/21 09:32:14;;;;;;;8.63;1.92;;;;;;;26.85;34.31;101603.66;5069535;28;20135;-72
2021/04/21 09:34:55;;;;;;;5.15;1.45;;;;;;;26.87;33.94;101592.78;5068873;28;20044;-73
2021/04/21 09:37:26;;;;;;;3.58;1.45;;;;;;;26.79;33.66;101593.06;5071722;28;20036;-72
2021/04/21 09:39:54;;;;;;;4.13;1.60;;;;;;;26.87;33.44;101593.66;5072436;28;20127;-70
2021/04/21 09:42:26;;;;;;;4.40;1.40;;;;;;;26.98;32.80;101596.88;5068545;28;20086;-70
2021/04/21 09:44:54;;;;;;;3.25;1.10;;;;;;;26.87;32.62;101593.66;5061315;28;20120;-70
2021/04/21 09:47:22;;;;;;;6.50;2.25;;;;;;;26.90;31.93;101593.59;5057706;28;20032;-70
2021/04/21 09:49:55;;;;;;;4.93;1.50;;;;;;;27.13;32.15;101583.66;5057260;28;20041;-70
2021/04/21 09:52:30;;;;;;;4.80;1.20;;;;;;;27.37;32.36;101569.13;5064379;28;20125;-70
2021/04/21 09:54:58;;;;;;;5.88;1.20;;;;;;;27.36;31.98;101578.19;5062314;28;20068;-70
2021/04/21 09:57:31;;;;;;;5.82;1.73;;;;;;;27.23;32.46;101580.53;5060859;28;20120;-70
2021/04/21 10:00:02;;;;;;;7.63;2.72;;;;;;;27.36;32.91;101572.78;5056080;28;22473;-70
2021/04/21 10:02:34;;;;;;;4.25;1.33;;;;;;;27.36;32.75;101580.91;5058362;28;20053;-69
2021/04/21 10:05:25;;;;;;;6.03;1.70;;;;;;;26.74;34.17;101584.25;5063690;28;20511;-70
2021/04/21 10:08:12;;;;;;;6.05;2.00;;;;;;;26.48;34.93;101573.50;5032392;28;20054;-71
2021/04/21 10:10:40;;;;;;;6.20;1.80;;;;;;;26.17;35.19;101571.91;5063911;28;20071;-69
2021/04/21 10:13:19;;;;;;;5.93;2.00;;;;;;;26.07;35.85;101570.44;5067432;28;20041;-70
2021/04/21 10:15:48;;;;;;;9.43;1.85;;;;;;;25.93;36.28;101580.00;5064145;28;20047;-71
2021/04/21 10:18:17;;;;;;;9.30;2.00;;;;;;;25.68;36.88;101575.41;5067013;28;20423;-70
2021/04/21 10:20:45;;;;;;;7.10;1.88;;;;;;;25.89;36.92;101589.16;5050087;28;20055;-71
2021/04/21 10:23:13;;;;;;;7.50;1.67;;;;;;;25.83;36.97;101579.44;5045834;28;20084;-70
2021/04/21 10:25:42;;;;;;;4.45;1.45;;;;;;;25.69;37.12;101585.31;5036908;28;20489;-70
2021/04/21 10:28:09;;;;;;;6.20;2.08;;;;;;;25.97;36.48;101582.53;5040554;28;20124;-70
2021/04/21 10:30:37;;;;;;;6.70;1.60;;;;;;;26.24;36.25;101590.63;5046627;28;20128;-70
2021/04/21 10:33:05;;;;;;;6.47;1.65;;;;;;;26.42;36.28;101587.28;5048485;28;20043;-70
2021/04/21 10:35:32;;;;;;;6.07;1.60;;;;;;;26.28;35.71;101585.06;5037438;28;20193;-70
2021/04/21 10:37:59;;;;;;;4.15;1.27;;;;;;;26.32;35.73;101584.00;5044686;28;20646;-71
2021/04/21 10:40:30;;;;;;;5.45;1.25;;;;;;;26.39;35.62;101581.94;5043839;28;20065;-71
2021/04/21 10:42:59;;;;;;;7.35;1.63;;;;;;;25.98;36.33;101580.72;5037709;28;20096;-70
2021/04/21 10:45:28;;;;;;;6.80;1.73;;;;;;;25.98;36.33;101586.13;5041910;28;20041;-70
2021/04/21 10:47:56;;;;;;;6.20;1.67;;;;;;;26.07;35.67;101589.38;5047695;28;20037;-70
2021/04/21 10:50:42;;;;;;;4.97;1.25;;;;;;;26.19;35.94;101586.25;5039571;28;20049;-70
2021/04/21 10:53:22;;;;;;;5.82;1.88;;;;;;;26.22;36.17;101596.09;5031907;28;20070;-71
2021/04/21 10:55:50;;;;;;;6.82;1.50;;;;;;;26.28;36.17;101593.19;5047622;28;20116;-70
2021/04/21 10:58:17;;;;;;;6.47;1.83;;;;;;;26.31;36.16;101589.50;5047181;28;20118;-71
2021/04/21 11:00:47;;;;;;;6.45;3.17;;;;;;;26.31;36.30;101589.50;5039891;28;20519;-71
2021/04/21 11:03:19;;;;;;;5.97;1.73;;;;;;;26.39;35.84;101592.78;5048184;28;20049;-70
2021/04/21 11:05:57;;;;;;;8.65;1.92;;;;;;;26.39;36.41;101595.50;5035879;28;20132;-69
2021/04/21 11:08:26;;;;;;;8.10;1.52;;;;;;;26.42;36.41;101598.09;5046094;28;20052;-70
2021/04/21 11:11:00;;;;;;;6.07;1.40;;;;;;;26.43;36.14;101589.94;5047316;28;20068;-70
2021/04/21 11:13:42;;;;;;;8.10;2.60;;;;;;;26.61;36.22;101598.31;5041424;28;20048;-71
2021/04/21 11:16:37;;;;;;;4.63;1.80;;;;;;;26.68;35.71;101598.03;5029645;28;20116;-71
2021/04/21 11:19:29;;;;;;;5.85;1.58;;;;;;;26.71;35.49;101599.75;5040396;28;20030;-70
2021/04/21 11:22:17;;;;;;;6.82;1.95;;;;;;;26.92;35.69;101599.81;5042780;28;20053;-71
2021/04/21 11:24:44;;;;;;;6.18;1.50;;;;;;;27.20;35.03;101594.19;5046806;28;20115;-70
2021/04/21 11:27:41;;;;;;;5.55;1.40;;;;;;;27.51;34.79;101596.53;5046651;28;20048;-71
2021/04/21 11:30:53;;;;;;;6.55;1.40;;;;;;;27.48;34.45;101595.78;5019223;28;20049;-70
2021/04/21 11:33:56;;;;;;;5.85;1.50;;;;;;;27.70;33.80;101596.69;5046567;28;20052;-71
2021/04/21 11:36:48;;;;;;;2.47;1.10;;;;;;;27.67;33.96;101600.44;5038001;28;20072;-70
2021/04/21 11:39:50;;;;;;;4.15;1.40;;;;;;;27.68;33.16;101590.44;5039426;28;20129;-71
2021/04/21 11:42:20;;;;;;;5.25;1.30;;;;;;;27.63;33.50;101587.94;5040151;28;20089;-71
2021/04/21 11:45:17;;;;;;;12.52;1.40;;;;;;;27.14;34.39;101570.03;5040863;28;20040;-70
2021/04/21 11:47:46;;;;;;;8.88;1.52;;;;;;;26.98;34.73;101590.56;5003709;28;20052;-71
2021/04/21 11:50:25;;;;;;;4.22;0.95;;;;;;;27.21;34.61;101584.22;5039736;28;20100;-71
2021/04/21 11:52:56;;;;;;;5.55;1.40;;;;;;;27.54;34.37;101582.88;5047002;28;20147;-70
2021/04/21 11:55:28;;;;;;;5.10;1.20;;;;;;;27.87;34.00;101595.97;5032935;28;20061;-71
2021/04/21 11:57:58;;;;;;;3.50;1.23;;;;;;;27.90;34.14;101576.81;5049730;28;20044;-70
2021/04/21 12:00:30;;;;;;;4.95;1.50;;;;;;;27.99;34.02;101595.44;5050257;28;20036;-71